sensor_id;sensor_type;location;lat;lon;timestamp;pressure;altitude;pressure_sealevel;temperature;humidity
7441;BME280;29616;51.950;8.572;2022-08-01T00:01:16;99962.28;;;19.09;100.00
7441;BME280;29616;51.950;8.572;2022-08-01T00:03:44;99955.91;;;19.02;100.00
7441;BME280;29616;51.950;8.572;2022-08-01T00:06:12;99957.78;;;19.08;100.00
7441;BME280;29616;51.950;8.572;2022-08-01T00:08:40;99970.63;;;19.16;100.00
7441;BME280;29616;51.950;8.572;2022-08-01T00:11:08;99971.22;;;19.11;100.00
7441;BME280;29616;51.950;8.572;2022-08-01T00:13:36;99969.13;;;19.13;100.00
7441;BME280;29616;51.950;8.572;2022-08-01T00:16:06;99966.09;;;19.08;100.00
7441;BME280;29616;51.950;8.572;2022-08-01T00:18:34;99971.66;;;19.08;100.00
7441;BME280;29616;51.950;8.572;2022-08-01T00:21:03;99974.88;;;19.05;100.00
7441;BME280;29616;51.950;8.572;2022-08-01T00:23:31;99972.91;;;19.06;100.00
7441;BME280;29616;51.950;8.572;2022-08-01T00:25:59;99973.56;;;19.01;100.00
7441;BME280;29616;51.950;8.572;2022-08-01T00:28:27;99971.22;;;18.98;100.00
7441;BME280;29616;51.950;8.572;2022-08-01T00:30:55;99982.28;;;18.92;100.00
7441;BME280;29616;51.950;8.572;2022-08-01T00:33:24;99977.81;;;18.91;100.00
7441;BME280;29616;51.950;8.572;2022-08-01T00:35:53;99980.75;;;18.83;100.00
7441;BME280;29616;51.950;8.572;2022-08-01T00:38:21;99974.38;;;18.82;100.00
7441;BME280;29616;51.950;8.572;2022-08-01T00:40:49;99975.41;;;18.74;100.00
7441;BME280;29616;51.950;8.572;2022-08-01T00:43:17;99977.97;;;18.69;100.00
7441;BME280;29616;51.950;8.572;2022-08-01T00:45:45;99960.91;;;18.66;100.00
7441;BME280;29616;51.950;8.572;2022-08-01T00:48:13;99968.16;;;18.67;100.00
7441;BME280;29616;51.950;8.572;2022-08-01T00:50:43;99971.97;;;18.66;100.00
7441;BME280;29616;51.950;8.572;2022-08-01T00:53:11;99978.81;;;18.70;100.00
7441;BME280;29616;51.950;8.572;2022-08-01T00:55:44;99962.59;;;18.60;100.00
7441;BME280;29616;51.950;8.572;2022-08-01T00:58:12;99980.94;;;18.68;100.00
7441;BME280;29616;51.950;8.572;2022-08-01T01:00:43;99968.13;;;18.60;100.00
7441;BME280;29616;51.950;8.572;2022-08-01T01:03:21;99968.78;;;18.62;100.00
7441;BME280;29616;51.950;8.572;2022-08-01T01:06:26;99971.56;;;18.62;100.00
7441;BME280;29616;51.950;8.572;2022-08-01T01:09:04;99963.44;;;18.54;100.00
7441;BME280;29616;51.950;8.572;2022-08-01T01:11:40;99959.34;;;18.50;100.00
7441;BME280;29616;51.950;8.572;2022-08-01T01:14:16;99954.47;;;18.52;100.00
7441;BME280;29616;51.950;8.572;2022-08-01T01:16:46;99966.84;;;18.63;100.00
7441;BME280;29616;51.950;8.572;2022-08-01T01:19:18;99978.59;;;18.65;100.00
7441;BME280;29616;51.950;8.572;2022-08-01T01:22:08;99973.69;;;18.67;100.00
7441;BME280;29616;51.950;8.572;2022-08-01T01:24:47;99972.84;;;18.66;100.00
7441;BME280;29616;51.950;8.572;2022-08-01T01:27:21;99975.81;;;18.65;100.00
7441;BME280;29616;51.950;8.572;2022-08-01T01:29:55;99947.69;;;18.55;100.00
7441;BME280;29616;51.950;8.572;2022-08-01T01:32:29;99968.16;;;18.67;100.00
7441;BME280;29616;51.950;8.572;2022-08-01T01:35:03;99983.03;;;18.66;100.00
7441;BME280;29616;51.950;8.572;2022-08-01T01:37:33;99970.06;;;18.60;100.00
7441;BME280;29616;51.950;8.572;2022-08-01T01:40:02;99980.94;;;18.68;100.00
7441;BME280;29616;51.950;8.572;2022-08-01T01:42:32;99979.22;;;18.67;100.00
7441;BME280;29616;51.950;8.572;2022-08-01T01:45:03;99977.50;;;18.66;100.00
7441;BME280;29616;51.950;8.572;2022-08-01T01:47:31;99974.56;;;18.67;100.00
7441;BME280;29616;51.950;8.572;2022-08-01T01:50:00;99979.22;;;18.67;100.00
7441;BME280;29616;51.950;8.572;2022-08-01T01:52:30;99979.63;;;18.64;100.00
7441;BME280;29616;51.950;8.572;2022-08-01T01:54:59;99980.94;;;18.68;100.00
7441;BME280;29616;51.950;8.572;2022-08-01T01:57:29;99984.75;;;18.67;100.00
7441;BME280;29616;51.950;8.572;2022-08-01T01:59:58;99985.19;;;18.64;100.00
7441;BME280;29616;51.950;8.572;2022-08-01T02:02:28;99986.03;;;18.64;100.00
7441;BME280;29616;51.950;8.572;2022-08-01T02:04:57;99986.88;;;18.65;100.00
7441;BME280;29616;51.950;8.572;2022-08-01T02:07:25;99990.28;;;18.67;100.00
7441;BME280;29616;51.950;8.572;2022-08-01T02:09:54;99982.63;;;18.69;100.00
7441;BME280;29616;51.950;8.572;2022-08-01T02:12:24;99982.63;;;18.62;100.00
7441;BME280;29616;51.950;8.572;2022-08-01T02:14:52;99983.44;;;18.63;100.00
7441;BME280;29616;51.950;8.572;2022-08-01T02:17:22;99989.44;;;18.60;100.00
7441;BME280;29616;51.950;8.572;2022-08-01T02:19:52;99981.94;;;18.54;100.00
7441;BME280;29616;51.950;8.572;2022-08-01T02:22:24;99990.06;;;18.62;100.00
7441;BME280;29616;51.950;8.572;2022-08-01T02:24:54;99981.13;;;18.60;100.00
7441;BME280;29616;51.950;8.572;2022-08-01T02:27:25;99988.75;;;18.58;100.00
7441;BME280;29616;51.950;8.572;2022-08-01T02:29:58;99974.66;;;18.46;100.00
7441;BME280;29616;51.950;8.572;2022-08-01T02:32:31;99985.97;;;18.51;100.00
7441;BME280;29616;51.950;8.572;2022-08-01T02:35:01;99988.13;;;18.56;100.00
7441;BME280;29616;51.950;8.572;2022-08-01T02:37:31;99990.25;;;18.54;100.00
7441;BME280;29616;51.950;8.572;2022-08-01T02:40:01;99987.44;;;18.47;100.00
7441;BME280;29616;51.950;8.572;2022-08-01T02:42:29;99988.03;;;18.43;100.00
7441;BME280;29616;51.950;8.572;2022-08-01T02:44:57;99974.38;;;18.28;100.00
7441;BME280;29616;51.950;8.572;2022-08-01T02:47:25;99989.25;;;18.34;100.00
7441;BME280;29616;51.950;8.572;2022-08-01T02:49:55;99989.25;;;18.34;100.00
7441;BME280;29616;51.950;8.572;2022-08-01T02:52:26;99986.72;;;18.32;100.00
7441;BME280;29616;51.950;8.572;2022-08-01T02:54:55;99995.22;;;18.31;100.00
7441;BME280;29616;51.950;8.572;2022-08-01T02:57:23;99962.13;;;18.09;100.00
7441;BME280;29616;51.950;8.572;2022-08-01T03:00:13;99977.72;;;18.17;100.00
7441;BME280;29616;51.950;8.572;2022-08-01T03:02:41;99999.84;;;18.17;100.00
7441;BME280;29616;51.950;8.572;2022-08-01T03:05:11;100002.19;;;18.20;100.00
7441;BME280;29616;51.950;8.572;2022-08-01T03:07:42;99993.69;;;18.22;100.00
7441;BME280;29616;51.950;8.572;2022-08-01T03:10:14;99998.34;;;18.14;100.00
7441;BME280;29616;51.950;8.572;2022-08-01T03:12:43;99999.84;;;18.17;100.00
7441;BME280;29616;51.950;8.572;2022-08-01T03:15:14;99999.34;;;18.07;100.00
7441;BME280;29616;51.950;8.572;2022-08-01T03:17:43;100002.78;;;18.15;100.00
7441;BME280;29616;51.950;8.572;2022-08-01T03:20:14;100001.53;;;18.18;100.00
7441;BME280;29616;51.950;8.572;2022-08-01T03:22:44;99996.84;;;18.18;100.00
7441;BME280;29616;51.950;8.572;2022-08-01T03:25:13;100004.50;;;18.16;100.00
7441;BME280;29616;51.950;8.572;2022-08-01T03:27:42;99995.34;;;18.16;100.00
7441;BME280;29616;51.950;8.572;2022-08-01T03:30:12;100013.03;;;18.22;100.00
7441;BME280;29616;51.950;8.572;2022-08-01T03:32:40;100011.53;;;18.19;100.00
7441;BME280;29616;51.950;8.572;2022-08-01T03:35:08;100022.38;;;18.21;100.00
7441;BME280;29616;51.950;8.572;2022-08-01T03:37:38;100022.38;;;18.21;100.00
7441;BME280;29616;51.950;8.572;2022-08-01T03:40:31;100017.53;;;18.23;100.00
7441;BME280;29616;51.950;8.572;2022-08-01T03:43:05;100010.03;;;18.16;100.00
7441;BME280;29616;51.950;8.572;2022-08-01T03:45:35;100018.56;;;18.22;100.00
7441;BME280;29616;51.950;8.572;2022-08-01T03:48:07;100017.53;;;18.23;100.00
7441;BME280;29616;51.950;8.572;2022-08-01T03:50:36;100013.84;;;18.15;100.00
7441;BME280;29616;51.950;8.572;2022-08-01T03:53:07;100024.50;;;18.18;100.00
7441;BME280;29616;51.950;8.572;2022-08-01T03:55:38;100022.59;;;18.19;100.00
7441;BME280;29616;51.950;8.572;2022-08-01T03:58:06;100022.38;;;18.21;100.00
7441;BME280;29616;51.950;8.572;2022-08-01T04:00:36;100022.38;;;18.21;100.00
7441;BME280;29616;51.950;8.572;2022-08-01T04:03:06;100022.38;;;18.21;100.00
7441;BME280;29616;51.950;8.572;2022-08-01T04:05:35;100032.41;;;18.22;100.00
7441;BME280;29616;51.950;8.572;2022-08-01T04:08:03;100030.28;;;18.24;100.00
7441;BME280;29616;51.950;8.572;2022-08-01T04:10:31;100033.44;;;18.21;100.00
7441;BME280;29616;51.950;8.572;2022-08-01T04:13:01;100019.38;;;18.15;100.00
7441;BME280;29616;51.950;8.572;2022-08-01T04:15:29;100030.50;;;18.22;100.00
7441;BME280;29616;51.950;8.572;2022-08-01T04:17:57;100026.06;;;18.28;100.00
7441;BME280;29616;51.950;8.572;2022-08-01T04:20:25;100031.59;;;18.28;100.00
7441;BME280;29616;51.950;8.572;2022-08-01T04:22:53;100030.72;;;18.27;100.00
7441;BME280;29616;51.950;8.572;2022-08-01T04:25:24;100036.09;;;18.35;100.00
7441;BME280;29616;51.950;8.572;2022-08-01T04:27:53;100032.25;;;18.30;100.00
7441;BME280;29616;51.950;8.572;2022-08-01T04:30:25;100038.66;;;18.37;100.00
7441;BME280;29616;51.950;8.572;2022-08-01T04:32:55;100033.53;;;18.34;100.00
7441;BME280;29616;51.950;8.572;2022-08-01T04:35:25;100056.56;;;18.41;100.00
7441;BME280;29616;51.950;8.572;2022-08-01T04:38:17;100039.56;;;18.44;100.00
7441;BME280;29616;51.950;8.572;2022-08-01T04:40:49;100049.00;;;18.49;100.00
7441;BME280;29616;51.950;8.572;2022-08-01T04:43:18;100050.16;;;18.40;100.00
7441;BME280;29616;51.950;8.572;2022-08-01T04:45:47;100042.31;;;18.44;100.00
7441;BME280;29616;51.950;8.572;2022-08-01T04:48:17;100055.75;;;18.47;100.00
7441;BME280;29616;51.950;8.572;2022-08-01T04:50:48;100056.16;;;18.44;100.00
7441;BME280;29616;51.950;8.572;2022-08-01T04:53:19;100050.69;;;18.50;100.00
7441;BME280;29616;51.950;8.572;2022-08-01T04:55:48;100057.47;;;18.48;100.00
7441;BME280;29616;51.950;8.572;2022-08-01T04:58:16;100060.25;;;18.48;100.00
7441;BME280;29616;51.950;8.572;2022-08-01T05:00:45;100065.50;;;18.43;100.00
7441;BME280;29616;51.950;8.572;2022-08-01T05:03:15;100070.69;;;18.52;100.00
7441;BME280;29616;51.950;8.572;2022-08-01T05:05:43;100073.28;;;18.60;100.00
7441;BME280;29616;51.950;8.572;2022-08-01T05:08:11;100060.06;;;18.56;100.00
7441;BME280;29616;51.950;8.572;2022-08-01T05:10:39;100071.63;;;18.66;100.00
7441;BME280;29616;51.950;8.572;2022-08-01T05:13:07;100070.97;;;18.64;100.00
7441;BME280;29616;51.950;8.572;2022-08-01T05:15:35;100061.63;;;18.71;100.00
7441;BME280;29616;51.950;8.572;2022-08-01T05:18:04;100066.97;;;18.73;100.00
7441;BME280;29616;51.950;8.572;2022-08-01T05:20:36;100064.63;;;18.76;100.00
7441;BME280;29616;51.950;8.572;2022-08-01T05:23:04;100066.59;;;18.83;100.00
7441;BME280;29616;51.950;8.572;2022-08-01T05:25:36;100072.16;;;18.89;100.00
7441;BME280;29616;51.950;8.572;2022-08-01T05:28:23;100072.75;;;18.85;100.00
7441;BME280;29616;51.950;8.572;2022-08-01T05:30:51;100072.97;;;18.83;100.00
7441;BME280;29616;51.950;8.572;2022-08-01T05:33:21;100060.38;;;18.74;100.00
7441;BME280;29616;51.950;8.572;2022-08-01T05:35:51;100085.09;;;18.82;100.00
7441;BME280;29616;51.950;8.572;2022-08-01T05:38:19;100079.97;;;18.79;100.00
7441;BME280;29616;51.950;8.572;2022-08-01T05:40:47;100077.47;;;18.91;100.00
7441;BME280;29616;51.950;8.572;2022-08-01T05:43:15;100066.56;;;18.76;100.00
7441;BME280;29616;51.950;8.572;2022-08-01T05:45:43;100067.00;;;18.80;100.00
7441;BME280;29616;51.950;8.572;2022-08-01T05:48:11;100082.34;;;18.82;100.00
7441;BME280;29616;51.950;8.572;2022-08-01T05:50:39;100083.25;;;18.89;100.00
7441;BME280;29616;51.950;8.572;2022-08-01T05:53:08;100084.06;;;18.90;100.00
7441;BME280;29616;51.950;8.572;2022-08-01T05:55:36;100087.50;;;18.92;100.00
7441;BME280;29616;51.950;8.572;2022-08-01T05:58:04;100080.88;;;18.93;100.00
7441;BME280;29616;51.950;8.572;2022-08-01T06:00:32;100089.47;;;19.04;100.00
7441;BME280;29616;51.950;8.572;2022-08-01T06:03:00;100098.44;;;19.13;100.00
7441;BME280;29616;51.950;8.572;2022-08-01T06:05:28;100101.63;;;19.16;100.00
7441;BME280;29616;51.950;8.572;2022-08-01T06:07:56;100092.28;;;19.17;100.00
7441;BME280;29616;51.950;8.572;2022-08-01T06:10:26;100091.22;;;19.18;100.00
7441;BME280;29616;51.950;8.572;2022-08-01T06:12:54;100089.72;;;19.22;100.00
7441;BME280;29616;51.950;8.572;2022-08-01T06:15:22;100102.63;;;19.50;100.00
7441;BME280;29616;51.950;8.572;2022-08-01T06:17:50;100106.00;;;19.39;100.00
7441;BME280;29616;51.950;8.572;2022-08-01T06:20:18;100116.72;;;19.68;100.00
7441;BME280;29616;51.950;8.572;2022-08-01T06:22:46;100096.25;;;19.75;100.00
7441;BME280;29616;51.950;8.572;2022-08-01T06:25:18;100115.88;;;19.74;100.00
7441;BME280;29616;51.950;8.572;2022-08-01T06:27:48;100115.88;;;19.74;100.00
7441;BME280;29616;51.950;8.572;2022-08-01T06:30:16;100110.75;;;19.71;100.00
7441;BME280;29616;51.950;8.572;2022-08-01T06:32:44;100114.59;;;19.70;100.00
7441;BME280;29616;51.950;8.572;2022-08-01T06:35:13;100118.84;;;19.66;100.00
7441;BME280;29616;51.950;8.572;2022-08-01T06:37:41;100112.00;;;19.49;100.00
7441;BME280;29616;51.950;8.572;2022-08-01T06:40:12;100109.41;;;19.41;100.00
7441;BME280;29616;51.950;8.572;2022-08-01T06:42:43;100113.28;;;19.40;100.00
7441;BME280;29616;51.950;8.572;2022-08-01T06:45:14;100116.22;;;19.38;100.00
7441;BME280;29616;51.950;8.572;2022-08-01T06:47:43;100115.41;;;19.44;100.00
7441;BME280;29616;51.950;8.572;2022-08-01T06:50:16;100111.94;;;19.35;100.00
7441;BME280;29616;51.950;8.572;2022-08-01T06:52:44;100124.75;;;19.43;100.00
7441;BME280;29616;51.950;8.572;2022-08-01T06:55:13;100111.28;;;19.33;100.00
7441;BME280;29616;51.950;8.572;2022-08-01T06:57:48;100116.63;;;19.28;100.00
7441;BME280;29616;51.950;8.572;2022-08-01T07:00:18;100109.75;;;19.24;100.00
7441;BME280;29616;51.950;8.572;2022-08-01T07:02:49;100123.63;;;19.24;100.00
7441;BME280;29616;51.950;8.572;2022-08-01T07:05:17;100116.16;;;19.18;100.00
7441;BME280;29616;51.950;8.572;2022-08-01T07:07:45;100122.78;;;19.30;100.00
7441;BME280;29616;51.950;8.572;2022-08-01T07:10:13;100127.97;;;19.47;100.00
7441;BME280;29616;51.950;8.572;2022-08-01T07:12:41;100123.09;;;19.62;100.00
7441;BME280;29616;51.950;8.572;2022-08-01T07:15:10;100100.94;;;19.75;100.00
7441;BME280;29616;51.950;8.572;2022-08-01T07:17:41;100115.91;;;20.20;100.00
7441;BME280;29616;51.950;8.572;2022-08-01T07:20:13;100110.34;;;20.39;100.00
7441;BME280;29616;51.950;8.572;2022-08-01T07:22:44;100118.81;;;20.77;100.00
7441;BME280;29616;51.950;8.572;2022-08-01T07:25:17;100110.31;;;20.59;100.00
7441;BME280;29616;51.950;8.572;2022-08-01T07:27:47;100116.31;;;20.23;100.00
7441;BME280;29616;51.950;8.572;2022-08-01T07:30:17;100118.03;;;19.98;100.00
7441;BME280;29616;51.950;8.572;2022-08-01T07:32:51;100125.47;;;20.04;100.00
7441;BME280;29616;51.950;8.572;2022-08-01T07:35:19;100116.13;;;20.12;100.00
7441;BME280;29616;51.950;8.572;2022-08-01T07:37:47;100127.00;;;20.26;100.00
7441;BME280;29616;51.950;8.572;2022-08-01T07:40:16;100123.16;;;20.34;100.00
7441;BME280;29616;51.950;8.572;2022-08-01T07:42:45;100124.22;;;20.26;100.00
7441;BME280;29616;51.950;8.572;2022-08-01T07:45:13;100133.81;;;19.98;100.00
7441;BME280;29616;51.950;8.572;2022-08-01T07:47:42;100143.41;;;19.69;100.00
7441;BME280;29616;51.950;8.572;2022-08-01T07:50:12;100143.97;;;19.51;100.00
7441;BME280;29616;51.950;8.572;2022-08-01T07:52:40;100154.25;;;19.51;100.00
7441;BME280;29616;51.950;8.572;2022-08-01T07:55:09;100127.75;;;19.48;100.00
7441;BME280;29616;51.950;8.572;2022-08-01T07:57:37;100134.19;;;19.62;100.00
7441;BME280;29616;51.950;8.572;2022-08-01T08:00:06;100142.53;;;19.88;100.00
7441;BME280;29616;51.950;8.572;2022-08-01T08:02:36;100141.50;;;19.95;100.00
7441;BME280;29616;51.950;8.572;2022-08-01T08:05:04;100134.69;;;20.11;100.00
7441;BME280;29616;51.950;8.572;2022-08-01T08:07:35;100147.47;;;20.58;100.00
7441;BME280;29616;51.950;8.572;2022-08-01T08:10:05;100134.41;;;20.72;100.00
7441;BME280;29616;51.950;8.572;2022-08-01T08:12:33;100127.78;;;21.37;100.00
7441;BME280;29616;51.950;8.572;2022-08-01T08:15:01;100143.59;;;21.74;100.00
7441;BME280;29616;51.950;8.572;2022-08-01T08:17:32;100133.63;;;21.60;100.00
7441;BME280;29616;51.950;8.572;2022-08-01T08:20:03;100146.59;;;21.72;100.00
7441;BME280;29616;51.950;8.572;2022-08-01T08:22:37;100134.50;;;21.85;100.00
7441;BME280;29616;51.950;8.572;2022-08-01T08:25:06;100138.34;;;21.91;100.00
7441;BME280;29616;51.950;8.572;2022-08-01T08:27:34;100147.28;;;21.68;100.00
7441;BME280;29616;51.950;8.572;2022-08-01T08:30:04;100137.63;;;22.02;100.00
7441;BME280;29616;51.950;8.572;2022-08-01T08:32:35;100139.78;;;23.46;100.00
7441;BME280;29616;51.950;8.572;2022-08-01T08:35:04;100145.09;;;23.30;100.00
7441;BME280;29616;51.950;8.572;2022-08-01T08:37:33;100151.03;;;22.85;100.00
7441;BME280;29616;51.950;8.572;2022-08-01T08:40:10;100135.19;;;23.52;100.00
7441;BME280;29616;51.950;8.572;2022-08-01T08:42:39;100134.97;;;24.71;100.00
7441;BME280;29616;51.950;8.572;2022-08-01T08:45:09;100140.22;;;24.79;100.00
7441;BME280;29616;51.950;8.572;2022-08-01T08:47:38;100142.38;;;24.77;100.00
7441;BME280;29616;51.950;8.572;2022-08-01T08:50:07;100132.41;;;24.35;100.00
7441;BME280;29616;51.950;8.572;2022-08-01T08:52:35;100146.84;;;23.90;100.00
7441;BME280;29616;51.950;8.572;2022-08-01T08:55:06;100133.41;;;23.99;100.00
7441;BME280;29616;51.950;8.572;2022-08-01T08:57:38;100149.63;;;23.79;100.00
7441;BME280;29616;51.950;8.572;2022-08-01T09:00:08;100147.44;;;23.51;100.00
7441;BME280;29616;51.950;8.572;2022-08-01T09:02:40;100130.22;;;23.54;100.00
7441;BME280;29616;51.950;8.572;2022-08-01T09:05:10;100148.50;;;23.68;100.00
7441;BME280;29616;51.950;8.572;2022-08-01T09:07:45;100160.16;;;23.47;100.00
7441;BME280;29616;51.950;8.572;2022-08-01T09:10:13;100161.44;;;23.26;100.00
7441;BME280;29616;51.950;8.572;2022-08-01T09:13:03;100169.47;;;23.05;100.00
7441;BME280;29616;51.950;8.572;2022-08-01T09:15:42;100169.66;;;22.85;100.00
7441;BME280;29616;51.950;8.572;2022-08-01T09:18:27;100185.50;;;22.66;100.00
7441;BME280;29616;51.950;8.572;2022-08-01T09:21:17;100173.31;;;22.36;100.00
7441;BME280;29616;51.950;8.572;2022-08-01T09:23:48;100178.81;;;22.18;100.00
7441;BME280;29616;51.950;8.572;2022-08-01T09:26:21;100182.00;;;22.46;100.00
7441;BME280;29616;51.950;8.572;2022-08-01T09:28:58;100184.63;;;22.41;100.00
7441;BME280;29616;51.950;8.572;2022-08-01T09:31:27;100177.81;;;22.37;100.00
7441;BME280;29616;51.950;8.572;2022-08-01T09:34:04;100190.06;;;22.54;100.00
7441;BME280;29616;51.950;8.572;2022-08-01T09:36:43;100196.44;;;22.61;100.00
7441;BME280;29616;51.950;8.572;2022-08-01T09:39:15;100186.63;;;23.02;100.00
7441;BME280;29616;51.950;8.572;2022-08-01T09:41:43;100182.59;;;23.34;100.00
7441;BME280;29616;51.950;8.572;2022-08-01T09:44:13;100172.06;;;23.00;100.00
7441;BME280;29616;51.950;8.572;2022-08-01T09:46:52;100192.50;;;22.93;100.00
7441;BME280;29616;51.950;8.572;2022-08-01T09:49:28;100192.56;;;22.62;100.00
7441;BME280;29616;51.950;8.572;2022-08-01T09:52:18;100204.09;;;22.72;100.00
7441;BME280;29616;51.950;8.572;2022-08-01T09:54:52;100193.34;;;22.51;100.00
7441;BME280;29616;51.950;8.572;2022-08-01T10:00:17;100201.09;;;22.18;100.00
7441;BME280;29616;51.950;8.572;2022-08-01T10:03:19;100185.66;;;22.22;100.00
7441;BME280;29616;51.950;8.572;2022-08-01T10:05:49;100198.44;;;22.29;100.00
7441;BME280;29616;51.950;8.572;2022-08-01T10:08:17;100195.06;;;22.21;100.00
7441;BME280;29616;51.950;8.572;2022-08-01T10:11:07;100209.41;;;22.49;100.00
7441;BME280;29616;51.950;8.572;2022-08-01T10:13:38;100193.38;;;22.45;100.00
7441;BME280;29616;51.950;8.572;2022-08-01T10:16:07;100193.44;;;22.63;100.00
7441;BME280;29616;51.950;8.572;2022-08-01T10:18:37;100218.69;;;23.11;100.00
7441;BME280;29616;51.950;8.572;2022-08-01T10:21:07;100200.13;;;23.23;100.00
7441;BME280;29616;51.950;8.572;2022-08-01T10:23:37;100188.00;;;23.65;100.00
7441;BME280;29616;51.950;8.572;2022-08-01T10:26:07;100176.50;;;24.03;100.00
7441;BME280;29616;51.950;8.572;2022-08-01T10:28:38;100202.63;;;24.73;100.00
7441;BME280;29616;51.950;8.572;2022-08-01T10:31:08;100187.09;;;24.77;100.00
7441;BME280;29616;51.950;8.572;2022-08-01T10:33:39;100173.38;;;24.64;100.00
7441;BME280;29616;51.950;8.572;2022-08-01T10:36:19;100183.50;;;24.35;100.00
7441;BME280;29616;51.950;8.572;2022-08-01T10:38:51;100206.66;;;24.13;100.00
7441;BME280;29616;51.950;8.572;2022-08-01T10:41:20;100204.34;;;23.62;100.00
7441;BME280;29616;51.950;8.572;2022-08-01T10:43:48;100200.25;;;23.64;100.00
7441;BME280;29616;51.950;8.572;2022-08-01T10:46:19;100200.34;;;23.58;100.00
7441;BME280;29616;51.950;8.572;2022-08-01T10:48:51;100197.94;;;23.43;100.00
7441;BME280;29616;51.950;8.572;2022-08-01T10:51:24;100205.69;;;23.23;100.00
7441;BME280;29616;51.950;8.572;2022-08-01T10:54:13;100183.34;;;22.86;100.00
7441;BME280;29616;51.950;8.572;2022-08-01T10:56:43;100176.56;;;22.82;100.00
7441;BME280;29616;51.950;8.572;2022-08-01T10:59:15;100198.84;;;22.82;100.00
7441;BME280;29616;51.950;8.572;2022-08-01T11:02:09;100197.72;;;22.65;100.00
7441;BME280;29616;51.950;8.572;2022-08-01T11:04:44;100203.00;;;22.49;100.00
7441;BME280;29616;51.950;8.572;2022-08-01T11:07:17;100198.34;;;22.43;100.00
7441;BME280;29616;51.950;8.572;2022-08-01T11:10:00;100202.19;;;22.42;100.00
7441;BME280;29616;51.950;8.572;2022-08-01T11:12:41;100186.09;;;22.19;100.00
7441;BME280;29616;51.950;8.572;2022-08-01T11:15:23;100216.03;;;22.23;100.00
7441;BME280;29616;51.950;8.572;2022-08-01T11:18:00;100167.16;;;21.71;100.00
7441;BME280;29616;51.950;8.572;2022-08-01T11:20:31;100184.22;;;21.75;100.00
7441;BME280;29616;51.950;8.572;2022-08-01T11:23:17;100194.56;;;21.61;100.00
7441;BME280;29616;51.950;8.572;2022-08-01T11:26:14;100221.13;;;21.57;100.00
7441;BME280;29616;51.950;8.572;2022-08-01T11:29:17;100226.88;;;21.62;100.00
7441;BME280;29616;51.950;8.572;2022-08-01T11:31:48;100209.59;;;21.54;100.00
7441;BME280;29616;51.950;8.572;2022-08-01T11:34:18;100212.97;;;21.62;100.00
7441;BME280;29616;51.950;8.572;2022-08-01T11:36:47;100223.84;;;21.64;100.00
7441;BME280;29616;51.950;8.572;2022-08-01T11:39:25;100227.88;;;21.74;100.00
7441;BME280;29616;51.950;8.572;2022-08-01T11:41:55;100213.91;;;21.43;100.00
7441;BME280;29616;51.950;8.572;2022-08-01T11:44:48;100197.34;;;21.17;100.00
7441;BME280;29616;51.950;8.572;2022-08-01T11:47:16;100230.59;;;21.43;100.00
7441;BME280;29616;51.950;8.572;2022-08-01T11:49:49;100237.50;;;21.21;100.00
7441;BME280;29616;51.950;8.572;2022-08-01T11:52:27;100232.84;;;21.15;100.00
7441;BME280;29616;51.950;8.572;2022-08-01T11:54:57;100247.75;;;21.34;100.00
7441;BME280;29616;51.950;8.572;2022-08-01T11:57:26;100233.28;;;21.12;100.00
7441;BME280;29616;51.950;8.572;2022-08-01T12:00:01;100266.13;;;21.35;100.00
7441;BME280;29616;51.950;8.572;2022-08-01T12:02:40;100245.13;;;21.45;100.00
7441;BME280;29616;51.950;8.572;2022-08-01T12:05:13;100248.38;;;21.42;100.00
7441;BME280;29616;51.950;8.572;2022-08-01T12:07:43;100234.53;;;21.16;100.00
7441;BME280;29616;51.950;8.572;2022-08-01T12:10:14;100246.41;;;21.43;100.00
7441;BME280;29616;51.950;8.572;2022-08-01T12:12:43;100261.97;;;21.63;100.00
7441;BME280;29616;51.950;8.572;2022-08-01T12:15:12;100253.41;;;21.58;100.00
7441;BME280;29616;51.950;8.572;2022-08-01T12:17:42;100273.81;;;21.39;100.00
7441;BME280;29616;51.950;8.572;2022-08-01T12:20:27;100265.91;;;21.36;100.00
7441;BME280;29616;51.950;8.572;2022-08-01T12:22:58;100259.06;;;21.39;100.00
7441;BME280;29616;51.950;8.572;2022-08-01T12:25:27;100273.22;;;21.82;100.00
7441;BME280;29616;51.950;8.572;2022-08-01T12:27:59;100224.69;;;21.71;100.00
7441;BME280;29616;51.950;8.572;2022-08-01T12:30:28;100271.94;;;22.22;100.00
7441;BME280;29616;51.950;8.572;2022-08-01T12:32:57;100246.22;;;21.95;100.00
7441;BME280;29616;51.950;8.572;2022-08-01T12:35:28;100260.34;;;21.94;100.00
7441;BME280;29616;51.950;8.572;2022-08-01T12:37:58;100255.41;;;21.38;100.00
7441;BME280;29616;51.950;8.572;2022-08-01T12:40:28;100270.84;;;21.34;100.00
7441;BME280;29616;51.950;8.572;2022-08-01T12:42:58;100299.50;;;21.28;100.00
7441;BME280;29616;51.950;8.572;2022-08-01T12:45:28;100289.44;;;21.27;100.00
7441;BME280;29616;51.950;8.572;2022-08-01T12:47:58;100266.59;;;20.92;100.00
7441;BME280;29616;51.950;8.572;2022-08-01T12:50:29;100301.03;;;20.91;100.00
7441;BME280;29616;51.950;8.572;2022-08-01T12:52:59;100286.28;;;20.78;100.00
7441;BME280;29616;51.950;8.572;2022-08-01T12:55:28;100283.09;;;20.68;100.00
7441;BME280;29616;51.950;8.572;2022-08-01T12:58:05;100248.25;;;20.72;100.00
7441;BME280;29616;51.950;8.572;2022-08-01T13:00:40;100294.16;;;21.27;100.00
7441;BME280;29616;51.950;8.572;2022-08-01T13:03:12;100296.25;;;21.44;100.00
7441;BME280;29616;51.950;8.572;2022-08-01T13:05:44;100267.38;;;21.45;100.00
7441;BME280;29616;51.950;8.572;2022-08-01T13:08:13;100274.59;;;21.59;100.00
7441;BME280;29616;51.950;8.572;2022-08-01T13:10:43;100288.31;;;21.54;100.00
7441;BME280;29616;51.950;8.572;2022-08-01T13:13:12;100275.50;;;21.40;100.00
7441;BME280;29616;51.950;8.572;2022-08-01T13:16:02;100305.06;;;21.28;100.00
7441;BME280;29616;51.950;8.572;2022-08-01T13:18:32;100304.44;;;21.26;100.00